Calimesa, CA (92320)

7:13 AM PDT on October 02, 2014 (GMT -0700)
Cherry Valley (NW) | Change Station
CLOSE
Current Station
Personal Weather Station
Location: Cherry Valley, CA
Elevation: 3057 ft
Nearby Weather Stations
Active Advisory: Wind Advisory, Heat Advisory

Elev 3057 ft 33.99 °N, 116.99 °W | Updated 11 seconds ago

Clear
Clear
67.8 °F
Feels Like 67.8 °F
N
6.9
Wind Variable Wind from North
Gusts 6.9 mph

Today
High -- | Low -- °F
--% Chance of Precip.
Yesterday
High -- | Low -- °F
Precip. -- in
6:43 AM 6:30 PM
First Quarter, 59% visible
Pressure 29.99 in
Visibility 10.0 miles
Clouds Clear
Dew Point 24 °F
Humidity 19%
Rainfall 0.00 in
Snow Depth 0 in , 0 in , 0 in
UV 0 out of 12
Pollen 6.00 out of 12
Ozone Good
Flu Activity Not available.
METAR KSBD 021350Z 04005KT 10SM SKC 14/03 A2999

More Conditions Fewer Conditions

Pressure 29.99 in
Visibility 10.0 miles
Clouds Clear
Dew Point 24 °F
Humidity 19%
Rainfall 0.00 in
Snow Depth 0 in , 0 in , 0 in
UV 0 out of 12
Pollen 6.00 out of 12
Ozone Good
Flu Activity Not available.
METAR KSBD 021350Z 04005KT 10SM SKC 14/03 A2999

More Conditions Fewer Conditions

10-Day Weather Forecast

Almanac

Astronomy

Oct. 02, 2014 Rise Set
Actual Time 6:43 AM PDT 6:30 PM PDT
Civil Twilight 6:18 AM PDT 6:55 PM PDT
Nautical Twilight 5:49 AM PDT 7:24 PM PDT
Astronomical Twilight 5:20 AM PDT 7:53 PM PDT
Moon 2:27 PM PDT 12:19 AM PDT
Length of Visible Light 12h 37m
Length of Day
11h 47m
Tomorrow will be 2m 6s shorter.
First Quarter, 59% of the Moon is Illuminated
Today
First Quarter
Oct 8
Full
Oct 15
Last Quarter
Oct 23
New
Oct 30
First Quarter

Today's Extremes

State Highs State Lows

Community

WunderPhotos

Upload Photos

1,758,250 photos uploaded!

WunderBlogs® & News

Nearby

Air Quality

  Air Quality AQ Index Pollutant
Yesterday Moderate
OZONE
Current Good
OZONE
Thursday Moderate
PM10
Thursday Moderate
OZONE
Thursday Good
CO
Thursday Good
NO2

Snow Depth

Station Depth Elevation
Forestdale Creek 0 in 8029 ft
Adin Mountain 0 in 6200 ft
Blue Lakes 0 in 8000 ft
Sonora Pass 1 in 8800 ft
Ebbetts Pass 0 in 8700 ft

Earthquake Activity

City Distance Mag. Time & Date
Avalon, California 93 miles 3.2 10:12 PM PDT
2014-10-01
Avalon, California 93 miles 2.6 1:28 PM PDT
2014-09-30
Minimum magnitude displayed is 2.5.

Coastal Water Temperatures

Place Temperature
No Stations Reporting

Nearby Weather Stations